This is the latest recevied weather packets stored in our database for station/object KB2UHF-8. If no packets are shown the sender has not sent any weather packets the latest 10 day(s).
| Time | Temp. | Humidity | Pressure | Rain* | Wind** | Luminosity | Snow |
|---|---|---|---|---|---|---|---|
| 1777860336 | 16.67° C | 40% | 1005.2 hPa | 0 mm | - | 0 W/m² | - |
| 1777855515 | 19.44° C | 34% | 1004.8 hPa | 0 mm | - | 20 W/m² | - |
| 1777854315 | 20.56° C | 36% | 1004.9 hPa | 0 mm | - | 46 W/m² | - |
| 1777851355 | 21.11° C | 31% | 1004.7 hPa | 0 mm | - | 210 W/m² | - |
| 1777849557 | 21.67° C | 32% | 1004.6 hPa | 0 mm | - | 308 W/m² | - |
| 1777848915 | 21.67° C | 33% | 1004.5 hPa | 0 mm | - | 337 W/m² | - |
| 1777848317 | 21.67° C | 34% | 1004.4 hPa | 0 mm | - | 364 W/m² | - |
| 1777845317 | 21.67° C | 39% | 1004.5 hPa | 0 mm | - | 513 W/m² | - |
| 1777841119 | 21.11° C | 39% | 1004.9 hPa | 0 mm | - | 698 W/m² | - |
| 1777835137 | 19.44° C | 42% | 1005.7 hPa | 0 mm | - | 862 W/m² | - |
| 1777833917 | 18.33° C | 44% | 1005.7 hPa | 0 mm | - | 878 W/m² | - |
| 1777832117 | 17.78° C | 48% | 1005.9 hPa | 0 mm | - | 892 W/m² | - |
| 1777830917 | 17.22° C | 46% | 1006.2 hPa | 0 mm | - | 893 W/m² | - |
| 1777829717 | 17.22° C | 49% | 1006.2 hPa | 0 mm | - | 891 W/m² | - |
| 1777824317 | 15.56° C | 50% | 1007 hPa | 0 mm | - | 797 W/m² | - |
| 1777823717 | 15° C | 47% | 1006.9 hPa | 0 mm | - | 779 W/m² | - |
| 1777823117 | 15° C | 49% | 1007 hPa | 0 mm | - | 759 W/m² | - |
| 1777822517 | 15° C | 47% | 1006.9 hPa | 0 mm | - | 737 W/m² | - |
| 1777809317 | 11.11° C | 63% | 1009 hPa | 0 mm | - | 26 W/m² | - |
| 1777808137 | 10.56° C | 64% | 1009.1 hPa | 0 mm | - | 49 W/m² | - |
| 1777806316 | 10.56° C | 63% | 1009.5 hPa | 0 mm | - | 9 W/m² | - |
| 1777805736 | 10.56° C | 61% | 1009.6 hPa | 0 mm | - | 1 W/m² | - |
| 1777803916 | 10.56° C | 60% | 1010 hPa | 0 mm | - | 0 W/m² | - |
| 1777803316 | 10.56° C | 58% | 1010 hPa | 0 mm | - | 0 W/m² | - |
| 1777801516 | 10.56° C | 57% | 1010.5 hPa | 0 mm | - | 0 W/m² | - |
* Rain latest hour (hover to see other rain measurements)
** Current wind speed in m/s (hover to see current wind gust speed)